sensor_id;sensor_type;location;lat;lon;timestamp;temperature;humidity
13992;DHT22;7070;53.586;9.692;2024-02-26T00:02:08;2.50;88.70
13992;DHT22;7070;53.586;9.692;2024-02-26T00:04:35;2.50;88.80
13992;DHT22;7070;53.586;9.692;2024-02-26T00:07:02;2.40;88.50
13992;DHT22;7070;53.586;9.692;2024-02-26T00:09:29;2.40;88.70
13992;DHT22;7070;53.586;9.692;2024-02-26T00:11:56;2.40;89.40
13992;DHT22;7070;53.586;9.692;2024-02-26T00:14:23;2.30;88.60
13992;DHT22;7070;53.586;9.692;2024-02-26T00:16:50;2.30;88.70
13992;DHT22;7070;53.586;9.692;2024-02-26T00:19:18;2.20;88.70
13992;DHT22;7070;53.586;9.692;2024-02-26T00:21:45;2.20;89.00
13992;DHT22;7070;53.586;9.692;2024-02-26T00:24:12;2.30;89.10
13992;DHT22;7070;53.586;9.692;2024-02-26T00:26:39;2.30;89.10
13992;DHT22;7070;53.586;9.692;2024-02-26T00:29:06;2.80;89.50
13992;DHT22;7070;53.586;9.692;2024-02-26T00:31:31;2.20;88.90
13992;DHT22;7070;53.586;9.692;2024-02-26T00:33:58;2.20;88.90
13992;DHT22;7070;53.586;9.692;2024-02-26T00:36:26;2.20;89.00
13992;DHT22;7070;53.586;9.692;2024-02-26T00:38:53;2.30;89.10
13992;DHT22;7070;53.586;9.692;2024-02-26T00:41:21;2.20;88.90
13992;DHT22;7070;53.586;9.692;2024-02-26T00:43:47;2.10;89.60
13992;DHT22;7070;53.586;9.692;2024-02-26T00:46:14;2.10;89.00
13992;DHT22;7070;53.586;9.692;2024-02-26T00:48:41;2.10;89.00
13992;DHT22;7070;53.586;9.692;2024-02-26T00:51:10;2.10;88.90
13992;DHT22;7070;53.586;9.692;2024-02-26T00:53:38;2.10;89.00
13992;DHT22;7070;53.586;9.692;2024-02-26T00:56:05;2.00;88.80
13992;DHT22;7070;53.586;9.692;2024-02-26T00:58:33;2.10;89.80
13992;DHT22;7070;53.586;9.692;2024-02-26T01:01:00;2.00;89.00
13992;DHT22;7070;53.586;9.692;2024-02-26T01:03:26;2.10;89.10
13992;DHT22;7070;53.586;9.692;2024-02-26T01:05:53;2.00;89.70
13992;DHT22;7070;53.586;9.692;2024-02-26T01:08:20;2.20;89.10
13992;DHT22;7070;53.586;9.692;2024-02-26T01:10:48;1.90;88.90
13992;DHT22;7070;53.586;9.692;2024-02-26T01:13:15;2.00;88.90
13992;DHT22;7070;53.586;9.692;2024-02-26T01:15:42;1.90;89.00
13992;DHT22;7070;53.586;9.692;2024-02-26T01:18:10;1.90;89.10
13992;DHT22;7070;53.586;9.692;2024-02-26T01:20:36;2.30;89.50
13992;DHT22;7070;53.586;9.692;2024-02-26T01:23:04;1.90;88.80
13992;DHT22;7070;53.586;9.692;2024-02-26T01:25:30;1.80;88.70
13992;DHT22;7070;53.586;9.692;2024-02-26T01:27:58;1.80;88.80
13992;DHT22;7070;53.586;9.692;2024-02-26T01:30:25;2.00;89.00
13992;DHT22;7070;53.586;9.692;2024-02-26T01:32:52;1.70;88.80
13992;DHT22;7070;53.586;9.692;2024-02-26T01:35:19;1.70;88.90
13992;DHT22;7070;53.586;9.692;2024-02-26T01:37:45;1.70;88.90
13992;DHT22;7070;53.586;9.692;2024-02-26T01:40:12;1.70;89.10
13992;DHT22;7070;53.586;9.692;2024-02-26T01:42:43;1.70;89.20
13992;DHT22;7070;53.586;9.692;2024-02-26T01:45:15;1.70;89.20
13992;DHT22;7070;53.586;9.692;2024-02-26T01:47:48;1.80;89.30
13992;DHT22;7070;53.586;9.692;2024-02-26T01:50:15;1.70;89.10
13992;DHT22;7070;53.586;9.692;2024-02-26T01:52:41;1.70;88.90
13992;DHT22;7070;53.586;9.692;2024-02-26T01:55:08;1.70;88.70
13992;DHT22;7070;53.586;9.692;2024-02-26T01:57:36;1.70;88.70
13992;DHT22;7070;53.586;9.692;2024-02-26T02:00:03;1.60;88.60
13992;DHT22;7070;53.586;9.692;2024-02-26T02:02:32;1.60;88.70
13992;DHT22;7070;53.586;9.692;2024-02-26T02:05:01;1.50;88.80
13992;DHT22;7070;53.586;9.692;2024-02-26T02:07:29;1.50;88.80
13992;DHT22;7070;53.586;9.692;2024-02-26T02:09:56;1.60;89.10
13992;DHT22;7070;53.586;9.692;2024-02-26T02:12:23;1.50;89.00
13992;DHT22;7070;53.586;9.692;2024-02-26T02:14:51;1.50;89.00
13992;DHT22;7070;53.586;9.692;2024-02-26T02:17:17;1.40;88.80
13992;DHT22;7070;53.586;9.692;2024-02-26T02:19:46;1.50;89.00
13992;DHT22;7070;53.586;9.692;2024-02-26T02:22:14;1.50;89.20
13992;DHT22;7070;53.586;9.692;2024-02-26T02:24:41;1.40;89.10
13992;DHT22;7070;53.586;9.692;2024-02-26T02:27:08;1.40;89.10
13992;DHT22;7070;53.586;9.692;2024-02-26T02:29:36;1.40;89.10
13992;DHT22;7070;53.586;9.692;2024-02-26T02:32:03;1.40;89.10
13992;DHT22;7070;53.586;9.692;2024-02-26T02:34:31;1.40;89.10
13992;DHT22;7070;53.586;9.692;2024-02-26T02:37:00;1.40;89.10
13992;DHT22;7070;53.586;9.692;2024-02-26T02:39:28;1.40;89.00
13992;DHT22;7070;53.586;9.692;2024-02-26T02:41:55;1.60;89.10
13992;DHT22;7070;53.586;9.692;2024-02-26T02:44:21;1.30;89.00
13992;DHT22;7070;53.586;9.692;2024-02-26T02:46:48;1.60;89.50
13992;DHT22;7070;53.586;9.692;2024-02-26T02:49:17;1.40;89.40
13992;DHT22;7070;53.586;9.692;2024-02-26T02:51:44;1.30;89.40
13992;DHT22;7070;53.586;9.692;2024-02-26T02:54:11;1.90;89.90
13992;DHT22;7070;53.586;9.692;2024-02-26T02:56:39;1.50;89.60
13992;DHT22;7070;53.586;9.692;2024-02-26T02:59:06;1.40;89.80
13992;DHT22;7070;53.586;9.692;2024-02-26T03:01:33;1.60;89.90
13992;DHT22;7070;53.586;9.692;2024-02-26T03:04:00;1.50;89.50
13992;DHT22;7070;53.586;9.692;2024-02-26T03:06:27;1.50;89.50
13992;DHT22;7070;53.586;9.692;2024-02-26T03:08:54;1.50;89.40
13992;DHT22;7070;53.586;9.692;2024-02-26T03:11:21;1.50;90.00
13992;DHT22;7070;53.586;9.692;2024-02-26T03:13:51;1.50;89.40
13992;DHT22;7070;53.586;9.692;2024-02-26T03:16:18;1.60;89.80
13992;DHT22;7070;53.586;9.692;2024-02-26T03:18:45;1.50;89.50
13992;DHT22;7070;53.586;9.692;2024-02-26T03:21:12;1.60;89.50
13992;DHT22;7070;53.586;9.692;2024-02-26T03:23:39;1.50;89.30
13992;DHT22;7070;53.586;9.692;2024-02-26T03:26:06;1.50;89.50
13992;DHT22;7070;53.586;9.692;2024-02-26T03:28:34;1.50;89.40
13992;DHT22;7070;53.586;9.692;2024-02-26T03:31:02;1.40;89.20
13992;DHT22;7070;53.586;9.692;2024-02-26T03:33:29;1.50;89.50
13992;DHT22;7070;53.586;9.692;2024-02-26T03:35:56;1.70;89.80
13992;DHT22;7070;53.586;9.692;2024-02-26T03:38:22;1.60;89.70
13992;DHT22;7070;53.586;9.692;2024-02-26T03:40:49;1.50;89.60
13992;DHT22;7070;53.586;9.692;2024-02-26T03:43:16;1.50;89.70
13992;DHT22;7070;53.586;9.692;2024-02-26T03:45:43;1.50;89.60
13992;DHT22;7070;53.586;9.692;2024-02-26T03:48:11;1.50;89.40
13992;DHT22;7070;53.586;9.692;2024-02-26T03:50:38;1.40;89.40
13992;DHT22;7070;53.586;9.692;2024-02-26T03:53:05;1.40;90.00
13992;DHT22;7070;53.586;9.692;2024-02-26T03:55:34;1.40;89.40
13992;DHT22;7070;53.586;9.692;2024-02-26T03:58:01;1.40;89.00
13992;DHT22;7070;53.586;9.692;2024-02-26T04:00:28;1.40;89.10
13992;DHT22;7070;53.586;9.692;2024-02-26T04:02:55;1.40;89.10
13992;DHT22;7070;53.586;9.692;2024-02-26T04:05:24;1.50;89.10
13992;DHT22;7070;53.586;9.692;2024-02-26T04:07:51;1.40;89.10
13992;DHT22;7070;53.586;9.692;2024-02-26T04:10:17;1.30;88.90
13992;DHT22;7070;53.586;9.692;2024-02-26T04:12:44;1.30;88.90
13992;DHT22;7070;53.586;9.692;2024-02-26T04:15:11;1.70;89.40
13992;DHT22;7070;53.586;9.692;2024-02-26T04:17:38;1.30;89.10
13992;DHT22;7070;53.586;9.692;2024-02-26T04:20:06;1.20;89.00
13992;DHT22;7070;53.586;9.692;2024-02-26T04:22:35;1.20;89.00
13992;DHT22;7070;53.586;9.692;2024-02-26T04:25:01;1.10;88.90
13992;DHT22;7070;53.586;9.692;2024-02-26T04:27:28;1.10;88.80
13992;DHT22;7070;53.586;9.692;2024-02-26T04:29:55;1.10;88.70
13992;DHT22;7070;53.586;9.692;2024-02-26T04:32:22;1.10;88.60
13992;DHT22;7070;53.586;9.692;2024-02-26T04:34:49;1.00;88.50
13992;DHT22;7070;53.586;9.692;2024-02-26T04:37:16;1.20;88.60
13992;DHT22;7070;53.586;9.692;2024-02-26T04:39:44;0.90;88.30
13992;DHT22;7070;53.586;9.692;2024-02-26T04:42:11;0.90;88.50
13992;DHT22;7070;53.586;9.692;2024-02-26T04:44:38;0.90;88.60
13992;DHT22;7070;53.586;9.692;2024-02-26T04:47:05;0.80;88.50
13992;DHT22;7070;53.586;9.692;2024-02-26T04:49:33;0.90;88.80
13992;DHT22;7070;53.586;9.692;2024-02-26T04:52:00;0.80;88.90
13992;DHT22;7070;53.586;9.692;2024-02-26T04:54:27;0.80;89.00
13992;DHT22;7070;53.586;9.692;2024-02-26T04:56:55;0.80;89.00
13992;DHT22;7070;53.586;9.692;2024-02-26T04:59:22;0.80;89.30
13992;DHT22;7070;53.586;9.692;2024-02-26T05:01:49;0.80;89.10
13992;DHT22;7070;53.586;9.692;2024-02-26T05:04:18;0.70;89.20
13992;DHT22;7070;53.586;9.692;2024-02-26T05:06:45;0.80;89.40
13992;DHT22;7070;53.586;9.692;2024-02-26T05:09:11;1.20;89.90
13992;DHT22;7070;53.586;9.692;2024-02-26T05:11:38;0.80;89.50
13992;DHT22;7070;53.586;9.692;2024-02-26T05:14:07;0.80;89.50
13992;DHT22;7070;53.586;9.692;2024-02-26T05:16:34;0.90;89.70
13992;DHT22;7070;53.586;9.692;2024-02-26T05:19:01;0.90;89.70
13992;DHT22;7070;53.586;9.692;2024-02-26T05:21:28;0.90;89.70
13992;DHT22;7070;53.586;9.692;2024-02-26T05:23:55;0.90;90.10
13992;DHT22;7070;53.586;9.692;2024-02-26T05:26:22;0.90;89.60
13992;DHT22;7070;53.586;9.692;2024-02-26T05:28:49;1.00;89.80
13992;DHT22;7070;53.586;9.692;2024-02-26T05:31:17;1.00;90.10
13992;DHT22;7070;53.586;9.692;2024-02-26T05:33:44;1.00;89.90
13992;DHT22;7070;53.586;9.692;2024-02-26T05:36:18;1.10;90.00
13992;DHT22;7070;53.586;9.692;2024-02-26T05:38:45;1.10;90.10
13992;DHT22;7070;53.586;9.692;2024-02-26T05:41:12;1.20;90.10
13992;DHT22;7070;53.586;9.692;2024-02-26T05:43:39;1.20;90.10
13992;DHT22;7070;53.586;9.692;2024-02-26T05:46:06;2.10;90.50
13992;DHT22;7070;53.586;9.692;2024-02-26T05:48:34;1.30;90.20
13992;DHT22;7070;53.586;9.692;2024-02-26T05:51:01;1.40;90.20
13992;DHT22;7070;53.586;9.692;2024-02-26T05:53:29;1.50;90.30
13992;DHT22;7070;53.586;9.692;2024-02-26T05:56:02;1.50;90.20
13992;DHT22;7070;53.586;9.692;2024-02-26T05:58:29;1.50;90.20
13992;DHT22;7070;53.586;9.692;2024-02-26T06:00:56;1.60;90.20
13992;DHT22;7070;53.586;9.692;2024-02-26T06:03:23;1.60;90.10
13992;DHT22;7070;53.586;9.692;2024-02-26T06:06:05;1.70;90.20
13992;DHT22;7070;53.586;9.692;2024-02-26T06:08:32;1.70;90.20
13992;DHT22;7070;53.586;9.692;2024-02-26T06:11:07;1.70;90.20
13992;DHT22;7070;53.586;9.692;2024-02-26T06:14:06;1.80;90.20
13992;DHT22;7070;53.586;9.692;2024-02-26T06:16:27;1.80;90.30
13992;DHT22;7070;53.586;9.692;2024-02-26T06:22:17;3.30;90.80
13992;DHT22;7070;53.586;9.692;2024-02-26T06:24:57;1.80;90.50
13992;DHT22;7070;53.586;9.692;2024-02-26T06:27:40;1.90;90.50
13992;DHT22;7070;53.586;9.692;2024-02-26T06:30:27;0.90;89.50
13992;DHT22;7070;53.586;9.692;2024-02-26T06:33:03;3.80;91.80
13992;DHT22;7070;53.586;9.692;2024-02-26T06:35:36;2.10;91.30
13992;DHT22;7070;53.586;9.692;2024-02-26T06:38:23;1.90;91.50
13992;DHT22;7070;53.586;9.692;2024-02-26T06:40:54;4.10;92.00
13992;DHT22;7070;53.586;9.692;2024-02-26T06:43:35;1.60;90.00
13992;DHT22;7070;53.586;9.692;2024-02-26T06:46:18;1.40;90.40
13992;DHT22;7070;53.586;9.692;2024-02-26T06:48:55;2.60;91.30
13992;DHT22;7070;53.586;9.692;2024-02-26T06:51:39;2.20;90.30
13992;DHT22;7070;53.586;9.692;2024-02-26T06:57:36;2.30;90.30
13992;DHT22;7070;53.586;9.692;2024-02-26T07:00:16;2.20;90.60
13992;DHT22;7070;53.586;9.692;2024-02-26T07:02:43;2.30;90.60
13992;DHT22;7070;53.586;9.692;2024-02-26T07:05:17;4.30;91.70
13992;DHT22;7070;53.586;9.692;2024-02-26T07:07:55;2.40;90.80
13992;DHT22;7070;53.586;9.692;2024-02-26T07:10:46;1.40;90.20
13992;DHT22;7070;53.586;9.692;2024-02-26T07:13:22;2.30;91.00
13992;DHT22;7070;53.586;9.692;2024-02-26T07:15:49;2.60;91.60
13992;DHT22;7070;53.586;9.692;2024-02-26T07:18:22;2.50;91.00
13992;DHT22;7070;53.586;9.692;2024-02-26T07:20:53;2.50;91.00
13992;DHT22;7070;53.586;9.692;2024-02-26T07:23:24;2.60;90.60
13992;DHT22;7070;53.586;9.692;2024-02-26T07:26:01;2.50;90.60
13992;DHT22;7070;53.586;9.692;2024-02-26T07:28:28;2.50;90.60
13992;DHT22;7070;53.586;9.692;2024-02-26T07:31:10;5.30;91.80
13992;DHT22;7070;53.586;9.692;2024-02-26T07:33:49;2.70;91.90
13992;DHT22;7070;53.586;9.692;2024-02-26T07:36:16;4.40;92.10
13992;DHT22;7070;53.586;9.692;2024-02-26T07:38:55;2.80;91.60
13992;DHT22;7070;53.586;9.692;2024-02-26T07:41:42;2.80;91.60
13992;DHT22;7070;53.586;9.692;2024-02-26T07:44:25;3.00;91.00
13992;DHT22;7070;53.586;9.692;2024-02-26T07:46:59;2.90;91.10
13992;DHT22;7070;53.586;9.692;2024-02-26T07:49:29;3.00;91.00
13992;DHT22;7070;53.586;9.692;2024-02-26T07:52:02;4.70;91.90
13992;DHT22;7070;53.586;9.692;2024-02-26T07:54:33;2.60;90.40
13992;DHT22;7070;53.586;9.692;2024-02-26T07:57:04;3.60;91.50
13992;DHT22;7070;53.586;9.692;2024-02-26T07:59:36;4.80;91.50
13992;DHT22;7070;53.586;9.692;2024-02-26T08:02:16;5.40;92.60
13992;DHT22;7070;53.586;9.692;2024-02-26T08:04:53;5.40;92.30
13992;DHT22;7070;53.586;9.692;2024-02-26T08:07:38;5.10;91.30
13992;DHT22;7070;53.586;9.692;2024-02-26T08:10:13;4.40;91.50
13992;DHT22;7070;53.586;9.692;2024-02-26T08:13:12;3.10;90.40
13992;DHT22;7070;53.586;9.692;2024-02-26T08:15:49;2.60;90.10
13992;DHT22;7070;53.586;9.692;2024-02-26T08:18:25;3.90;90.90
13992;DHT22;7070;53.586;9.692;2024-02-26T08:20:59;3.40;90.90
13992;DHT22;7070;53.586;9.692;2024-02-26T08:23:29;4.20;91.80
13992;DHT22;7070;53.586;9.692;2024-02-26T08:25:59;4.50;90.90
13992;DHT22;7070;53.586;9.692;2024-02-26T08:28:37;4.20;90.90
13992;DHT22;7070;53.586;9.692;2024-02-26T08:31:04;4.30;90.80
13992;DHT22;7070;53.586;9.692;2024-02-26T08:33:31;4.40;90.80
13992;DHT22;7070;53.586;9.692;2024-02-26T08:36:04;4.40;90.70
13992;DHT22;7070;53.586;9.692;2024-02-26T08:38:35;4.40;91.00
13992;DHT22;7070;53.586;9.692;2024-02-26T08:41:04;4.50;90.70
13992;DHT22;7070;53.586;9.692;2024-02-26T08:43:45;4.60;90.70
13992;DHT22;7070;53.586;9.692;2024-02-26T08:46:12;4.60;90.60
13992;DHT22;7070;53.586;9.692;2024-02-26T08:48:48;4.60;90.60
13992;DHT22;7070;53.586;9.692;2024-02-26T08:51:19;4.70;90.60
13992;DHT22;7070;53.586;9.692;2024-02-26T08:53:46;4.70;90.60
13992;DHT22;7070;53.586;9.692;2024-02-26T08:56:16;4.80;90.60
13992;DHT22;7070;53.586;9.692;2024-02-26T08:58:48;4.80;90.50
13992;DHT22;7070;53.586;9.692;2024-02-26T09:01:19;4.80;90.60
13992;DHT22;7070;53.586;9.692;2024-02-26T09:03:52;4.90;90.70
13992;DHT22;7070;53.586;9.692;2024-02-26T09:06:19;5.00;90.60
13992;DHT22;7070;53.586;9.692;2024-02-26T09:08:45;5.00;90.60
13992;DHT22;7070;53.586;9.692;2024-02-26T09:11:12;5.10;90.60
13992;DHT22;7070;53.586;9.692;2024-02-26T09:13:39;5.10;90.60
13992;DHT22;7070;53.586;9.692;2024-02-26T09:16:07;5.20;90.60
13992;DHT22;7070;53.586;9.692;2024-02-26T09:18:34;5.30;90.70
13992;DHT22;7070;53.586;9.692;2024-02-26T09:21:04;5.40;90.70
13992;DHT22;7070;53.586;9.692;2024-02-26T09:23:31;5.40;90.70
13992;DHT22;7070;53.586;9.692;2024-02-26T09:25:58;5.50;90.70
13992;DHT22;7070;53.586;9.692;2024-02-26T09:28:25;5.60;90.70
13992;DHT22;7070;53.586;9.692;2024-02-26T09:30:52;5.60;90.60
13992;DHT22;7070;53.586;9.692;2024-02-26T09:33:21;5.70;90.70
13992;DHT22;7070;53.586;9.692;2024-02-26T09:35:48;5.80;90.60
13992;DHT22;7070;53.586;9.692;2024-02-26T09:38:15;5.90;90.70
13992;DHT22;7070;53.586;9.692;2024-02-26T09:40:45;5.90;90.60
13992;DHT22;7070;53.586;9.692;2024-02-26T09:43:14;6.00;90.70
13992;DHT22;7070;53.586;9.692;2024-02-26T09:45:42;6.10;90.70
13992;DHT22;7070;53.586;9.692;2024-02-26T09:48:10;6.20;90.60
13992;DHT22;7070;53.586;9.692;2024-02-26T09:50:41;6.20;90.60
13992;DHT22;7070;53.586;9.692;2024-02-26T09:53:14;6.30;90.60
13992;DHT22;7070;53.586;9.692;2024-02-26T09:55:48;6.40;90.70
13992;DHT22;7070;53.586;9.692;2024-02-26T09:58:16;6.50;91.10
13992;DHT22;7070;53.586;9.692;2024-02-26T10:00:49;6.60;90.70
13992;DHT22;7070;53.586;9.692;2024-02-26T10:03:27;6.60;90.70
13992;DHT22;7070;53.586;9.692;2024-02-26T10:05:58;6.70;90.70
13992;DHT22;7070;53.586;9.692;2024-02-26T10:08:25;6.80;90.60
13992;DHT22;7070;53.586;9.692;2024-02-26T10:10:54;6.90;90.60
13992;DHT22;7070;53.586;9.692;2024-02-26T10:13:23;7.00;90.50
13992;DHT22;7070;53.586;9.692;2024-02-26T10:15:51;7.00;90.70
13992;DHT22;7070;53.586;9.692;2024-02-26T10:18:22;7.00;90.40
13992;DHT22;7070;53.586;9.692;2024-02-26T10:21:00;7.50;90.60
13992;DHT22;7070;53.586;9.692;2024-02-26T10:23:30;7.10;90.50
13992;DHT22;7070;53.586;9.692;2024-02-26T10:25:57;7.20;90.60
13992;DHT22;7070;53.586;9.692;2024-02-26T10:28:25;7.20;90.50
13992;DHT22;7070;53.586;9.692;2024-02-26T10:31:17;7.40;90.50
13992;DHT22;7070;53.586;9.692;2024-02-26T10:33:47;7.40;90.50
13992;DHT22;7070;53.586;9.692;2024-02-26T10:36:16;7.40;90.80
13992;DHT22;7070;53.586;9.692;2024-02-26T10:38:43;7.40;90.40
13992;DHT22;7070;53.586;9.692;2024-02-26T10:41:13;7.60;90.40
13992;DHT22;7070;53.586;9.692;2024-02-26T10:43:42;7.60;90.40
13992;DHT22;7070;53.586;9.692;2024-02-26T10:46:09;7.60;90.60
13992;DHT22;7070;53.586;9.692;2024-02-26T10:48:36;7.70;90.30
13992;DHT22;7070;53.586;9.692;2024-02-26T10:51:04;7.80;90.30
13992;DHT22;7070;53.586;9.692;2024-02-26T10:53:34;7.80;90.20
13992;DHT22;7070;53.586;9.692;2024-02-26T10:56:04;7.80;90.20
13992;DHT22;7070;53.586;9.692;2024-02-26T10:58:32;7.90;90.10
13992;DHT22;7070;53.586;9.692;2024-02-26T11:01:03;7.90;90.10
13992;DHT22;7070;53.586;9.692;2024-02-26T11:03:55;8.00;90.30
13992;DHT22;7070;53.586;9.692;2024-02-26T11:06:57;8.10;90.20
13992;DHT22;7070;53.586;9.692;2024-02-26T11:09:15;8.10;90.30
13992;DHT22;7070;53.586;9.692;2024-02-26T11:11:46;8.20;90.20
13992;DHT22;7070;53.586;9.692;2024-02-26T11:14:16;8.30;90.20
13992;DHT22;7070;53.586;9.692;2024-02-26T11:16:47;8.40;90.20
13992;DHT22;7070;53.586;9.692;2024-02-26T11:19:17;8.40;90.20
13992;DHT22;7070;53.586;9.692;2024-02-26T11:21:46;8.60;90.20
13992;DHT22;7070;53.586;9.692;2024-02-26T11:24:17;8.60;90.10
13992;DHT22;7070;53.586;9.692;2024-02-26T11:26:52;8.70;90.20
13992;DHT22;7070;53.586;9.692;2024-02-26T11:29:26;8.80;90.10
13992;DHT22;7070;53.586;9.692;2024-02-26T11:31:55;8.90;90.00
13992;DHT22;7070;53.586;9.692;2024-02-26T11:34:28;8.90;89.60
13992;DHT22;7070;53.586;9.692;2024-02-26T11:36:55;8.90;89.60
13992;DHT22;7070;53.586;9.692;2024-02-26T11:39:27;8.80;89.10
13992;DHT22;7070;53.586;9.692;2024-02-26T11:42:23;8.90;89.10
13992;DHT22;7070;53.586;9.692;2024-02-26T11:44:58;8.90;89.10
13992;DHT22;7070;53.586;9.692;2024-02-26T11:47:27;8.90;89.10
13992;DHT22;7070;53.586;9.692;2024-02-26T11:49:55;9.00;89.90
13992;DHT22;7070;53.586;9.692;2024-02-26T11:52:22;9.00;89.20
13992;DHT22;7070;53.586;9.692;2024-02-26T11:54:57;9.00;89.20
13992;DHT22;7070;53.586;9.692;2024-02-26T11:57:24;9.10;89.30
13992;DHT22;7070;53.586;9.692;2024-02-26T11:59:54;9.10;89.20
13992;DHT22;7070;53.586;9.692;2024-02-26T12:02:44;9.20;89.20
13992;DHT22;7070;53.586;9.692;2024-02-26T12:05:17;9.30;88.90
13992;DHT22;7070;53.586;9.692;2024-02-26T12:07:47;9.30;89.20
13992;DHT22;7070;53.586;9.692;2024-02-26T12:10:24;9.20;88.20
13992;DHT22;7070;53.586;9.692;2024-02-26T12:12:58;9.30;87.90
13992;DHT22;7070;53.586;9.692;2024-02-26T12:15:30;9.20;87.50
13992;DHT22;7070;53.586;9.692;2024-02-26T12:17:58;9.10;87.40
13992;DHT22;7070;53.586;9.692;2024-02-26T12:20:28;9.10;87.40
13992;DHT22;7070;53.586;9.692;2024-02-26T12:22:57;9.10;87.30
13992;DHT22;7070;53.586;9.692;2024-02-26T12:25:27;9.00;88.00
13992;DHT22;7070;53.586;9.692;2024-02-26T12:27:59;9.00;87.30
13992;DHT22;7070;53.586;9.692;2024-02-26T12:30:26;9.00;88.20
13992;DHT22;7070;53.586;9.692;2024-02-26T12:33:01;8.90;87.00
13992;DHT22;7070;53.586;9.692;2024-02-26T12:35:30;8.90;86.90
13992;DHT22;7070;53.586;9.692;2024-02-26T12:37:58;8.90;86.70
13992;DHT22;7070;53.586;9.692;2024-02-26T12:40:29;8.90;86.90
13992;DHT22;7070;53.586;9.692;2024-02-26T12:42:56;8.90;86.60
13992;DHT22;7070;53.586;9.692;2024-02-26T12:45:23;8.80;86.00
13992;DHT22;7070;53.586;9.692;2024-02-26T12:47:52;8.80;85.90
13992;DHT22;7070;53.586;9.692;2024-02-26T12:50:19;8.80;85.70
13992;DHT22;7070;53.586;9.692;2024-02-26T12:52:47;8.70;86.60
13992;DHT22;7070;53.586;9.692;2024-02-26T12:55:15;8.70;86.20
13992;DHT22;7070;53.586;9.692;2024-02-26T12:57:47;8.70;86.30
13992;DHT22;7070;53.586;9.692;2024-02-26T13:00:18;8.70;86.50
13992;DHT22;7070;53.586;9.692;2024-02-26T13:02:46;8.70;86.50
13992;DHT22;7070;53.586;9.692;2024-02-26T13:05:19;8.70;86.60
13992;DHT22;7070;53.586;9.692;2024-02-26T13:07:47;8.80;87.00
13992;DHT22;7070;53.586;9.692;2024-02-26T13:10:14;8.80;86.50
13992;DHT22;7070;53.586;9.692;2024-02-26T13:12:45;8.80;86.10
13992;DHT22;7070;53.586;9.692;2024-02-26T13:15:15;8.80;86.70
13992;DHT22;7070;53.586;9.692;2024-02-26T13:17:48;8.80;86.00
13992;DHT22;7070;53.586;9.692;2024-02-26T13:20:25;8.50;86.20
13992;DHT22;7070;53.586;9.692;2024-02-26T13:23:04;8.90;86.30
13992;DHT22;7070;53.586;9.692;2024-02-26T13:25:31;8.90;86.10
13992;DHT22;7070;53.586;9.692;2024-02-26T13:28:12;8.90;85.80
13992;DHT22;7070;53.586;9.692;2024-02-26T13:30:41;9.00;86.00
13992;DHT22;7070;53.586;9.692;2024-02-26T13:33:10;9.00;85.90
13992;DHT22;7070;53.586;9.692;2024-02-26T13:35:40;9.00;85.70
13992;DHT22;7070;53.586;9.692;2024-02-26T13:38:07;9.00;85.60
13992;DHT22;7070;53.586;9.692;2024-02-26T13:40:35;9.00;85.30
13992;DHT22;7070;53.586;9.692;2024-02-26T13:43:04;9.00;85.10
13992;DHT22;7070;53.586;9.692;2024-02-26T13:45:35;8.90;85.20
13992;DHT22;7070;53.586;9.692;2024-02-26T13:48:04;9.00;86.00
13992;DHT22;7070;53.586;9.692;2024-02-26T13:50:33;8.90;85.30
13992;DHT22;7070;53.586;9.692;2024-02-26T13:53:00;8.90;85.20
13992;DHT22;7070;53.586;9.692;2024-02-26T13:55:32;8.90;85.20
13992;DHT22;7070;53.586;9.692;2024-02-26T13:58:01;9.00;85.30
13992;DHT22;7070;53.586;9.692;2024-02-26T14:00:30;9.00;85.40
13992;DHT22;7070;53.586;9.692;2024-02-26T14:03:02;9.10;85.50
13992;DHT22;7070;53.586;9.692;2024-02-26T14:05:31;9.00;85.20
13992;DHT22;7070;53.586;9.692;2024-02-26T14:08:23;9.00;85.00
13992;DHT22;7070;53.586;9.692;2024-02-26T14:10:52;9.00;85.10
13992;DHT22;7070;53.586;9.692;2024-02-26T14:13:19;9.00;84.90
13992;DHT22;7070;53.586;9.692;2024-02-26T14:15:46;8.90;84.80
13992;DHT22;7070;53.586;9.692;2024-02-26T14:18:14;9.00;84.80
13992;DHT22;7070;53.586;9.692;2024-02-26T14:20:45;9.00;84.50
13992;DHT22;7070;53.586;9.692;2024-02-26T14:23:12;9.00;85.10
13992;DHT22;7070;53.586;9.692;2024-02-26T14:25:38;8.90;84.60
13992;DHT22;7070;53.586;9.692;2024-02-26T14:28:05;8.90;84.80
13992;DHT22;7070;53.586;9.692;2024-02-26T14:30:32;8.90;84.70
13992;DHT22;7070;53.586;9.692;2024-02-26T14:33:09;8.90;84.60
13992;DHT22;7070;53.586;9.692;2024-02-26T14:35:40;8.90;84.50
13992;DHT22;7070;53.586;9.692;2024-02-26T14:38:08;8.80;84.30
13992;DHT22;7070;53.586;9.692;2024-02-26T14:40:37;8.80;84.10
13992;DHT22;7070;53.586;9.692;2024-02-26T14:43:10;8.70;83.90
13992;DHT22;7070;53.586;9.692;2024-02-26T14:45:42;8.70;84.40
13992;DHT22;7070;53.586;9.692;2024-02-26T14:48:09;8.60;84.20
13992;DHT22;7070;53.586;9.692;2024-02-26T14:50:36;8.60;84.40
13992;DHT22;7070;53.586;9.692;2024-02-26T14:53:05;8.50;84.50
13992;DHT22;7070;53.586;9.692;2024-02-26T14:55:34;8.50;84.50
13992;DHT22;7070;53.586;9.692;2024-02-26T14:58:09;6.90;83.10
13992;DHT22;7070;53.586;9.692;2024-02-26T15:00:36;8.40;84.40
13992;DHT22;7070;53.586;9.692;2024-02-26T15:03:03;8.30;84.40
13992;DHT22;7070;53.586;9.692;2024-02-26T15:05:32;8.20;84.40
13992;DHT22;7070;53.586;9.692;2024-02-26T15:11:24;8.20;84.70
13992;DHT22;7070;53.586;9.692;2024-02-26T15:13:59;8.10;84.80
13992;DHT22;7070;53.586;9.692;2024-02-26T15:16:27;8.00;84.90
13992;DHT22;7070;53.586;9.692;2024-02-26T15:18:54;8.00;84.80
13992;DHT22;7070;53.586;9.692;2024-02-26T15:21:31;8.00;84.90
13992;DHT22;7070;53.586;9.692;2024-02-26T15:24:00;8.00;84.90
13992;DHT22;7070;53.586;9.692;2024-02-26T15:26:29;7.90;85.10
13992;DHT22;7070;53.586;9.692;2024-02-26T15:28:59;7.80;84.70
13992;DHT22;7070;53.586;9.692;2024-02-26T15:31:26;7.80;84.80
13992;DHT22;7070;53.586;9.692;2024-02-26T15:33:54;7.80;85.00
13992;DHT22;7070;53.586;9.692;2024-02-26T15:36:21;7.70;85.00
13992;DHT22;7070;53.586;9.692;2024-02-26T15:38:54;8.00;85.40
13992;DHT22;7070;53.586;9.692;2024-02-26T15:41:23;7.70;85.00
13992;DHT22;7070;53.586;9.692;2024-02-26T15:43:53;7.60;85.20
13992;DHT22;7070;53.586;9.692;2024-02-26T15:46:24;7.60;85.30
13992;DHT22;7070;53.586;9.692;2024-02-26T15:48:51;7.60;85.40
13992;DHT22;7070;53.586;9.692;2024-02-26T15:51:19;7.50;85.30
13992;DHT22;7070;53.586;9.692;2024-02-26T15:53:49;7.60;85.50
13992;DHT22;7070;53.586;9.692;2024-02-26T15:56:19;7.60;85.40
13992;DHT22;7070;53.586;9.692;2024-02-26T15:58:50;7.50;85.50
13992;DHT22;7070;53.586;9.692;2024-02-26T16:01:19;7.50;85.50
13992;DHT22;7070;53.586;9.692;2024-02-26T16:03:51;7.50;85.50
13992;DHT22;7070;53.586;9.692;2024-02-26T16:06:29;7.50;85.80
13992;DHT22;7070;53.586;9.692;2024-02-26T16:09:02;7.30;85.50
13992;DHT22;7070;53.586;9.692;2024-02-26T16:11:36;7.40;85.80
13992;DHT22;7070;53.586;9.692;2024-02-26T16:14:11;7.40;85.70
13992;DHT22;7070;53.586;9.692;2024-02-26T16:16:44;7.40;85.60
13992;DHT22;7070;53.586;9.692;2024-02-26T16:19:15;7.40;85.70
13992;DHT22;7070;53.586;9.692;2024-02-26T16:21:54;7.30;85.90
13992;DHT22;7070;53.586;9.692;2024-02-26T16:24:23;7.30;85.70
13992;DHT22;7070;53.586;9.692;2024-02-26T16:26:56;7.30;85.30
13992;DHT22;7070;53.586;9.692;2024-02-26T16:29:24;7.10;85.20
13992;DHT22;7070;53.586;9.692;2024-02-26T16:31:51;6.90;85.10